createdAt,value
2017-07-15T00:00:23.754Z,14.97
2017-07-15T00:02:51.055Z,17.43
2017-07-15T00:05:18.372Z,16.17
2017-07-15T00:07:45.678Z,16.57
2017-07-15T00:10:13.014Z,18.63
2017-07-15T00:12:40.560Z,12.30
2017-07-15T00:15:07.893Z,16.97
2017-07-15T00:17:35.530Z,15.50
2017-07-15T00:20:02.838Z,17.27
2017-07-15T00:22:30.159Z,14.27
2017-07-15T00:24:57.477Z,16.63
2017-07-15T00:27:24.823Z,12.80
2017-07-15T00:29:52.121Z,15.43
2017-07-15T00:32:19.464Z,16.20
2017-07-15T00:34:46.819Z,14.90
2017-07-15T00:37:14.128Z,15.17
2017-07-15T00:39:41.476Z,14.70
2017-07-15T00:42:08.809Z,15.13
2017-07-15T00:44:36.188Z,16.57
2017-07-15T00:47:03.488Z,14.67
2017-07-15T00:49:30.810Z,12.80
2017-07-15T00:51:58.140Z,14.53
2017-07-15T00:54:25.438Z,17.37
2017-07-15T00:56:53.073Z,15.77
2017-07-15T00:59:20.400Z,15.40
2017-07-15T01:01:47.797Z,17.53
2017-07-15T01:04:15.088Z,17.50
2017-07-15T01:06:42.622Z,17.27
2017-07-15T01:09:09.942Z,18.00
2017-07-15T01:11:37.259Z,16.27
2017-07-15T01:14:04.867Z,16.63
2017-07-15T01:16:32.196Z,19.37
2017-07-15T01:18:59.635Z,16.50
2017-07-15T01:21:26.951Z,16.73
2017-07-15T01:23:54.257Z,15.47
2017-07-15T01:26:21.582Z,23.67
2017-07-15T01:28:48.924Z,20.97
2017-07-15T01:31:16.313Z,19.23
2017-07-15T01:33:43.607Z,20.00
2017-07-15T01:36:10.937Z,18.90
2017-07-15T01:38:38.275Z,18.90
2017-07-15T01:41:05.631Z,20.77
2017-07-15T01:43:32.924Z,22.93
2017-07-15T01:46:00.620Z,17.97
2017-07-15T01:48:27.939Z,18.00
2017-07-15T01:50:55.280Z,16.67
2017-07-15T01:53:22.610Z,16.60
2017-07-15T01:55:49.917Z,18.40
2017-07-15T01:58:17.370Z,18.53
2017-07-15T02:00:44.677Z,16.90
2017-07-15T02:03:12.004Z,19.50
2017-07-15T02:05:39.353Z,18.67
2017-07-15T02:08:06.651Z,20.07
2017-07-15T02:10:34.977Z,24.47
2017-07-15T02:13:02.317Z,22.63
2017-07-15T02:15:29.651Z,22.40
2017-07-15T02:17:56.940Z,20.60
2017-07-15T02:20:24.269Z,21.20
2017-07-15T02:22:51.567Z,20.83
2017-07-15T02:25:18.872Z,17.70
2017-07-15T02:27:46.185Z,19.43
2017-07-15T02:30:13.489Z,18.33
2017-07-15T02:32:41.737Z,19.77
2017-07-15T02:35:09.071Z,23.50
2017-07-15T02:37:36.420Z,20.73
2017-07-15T02:40:03.741Z,25.50
2017-07-15T02:42:31.038Z,21.60
2017-07-15T02:44:58.360Z,20.37
2017-07-15T02:47:25.669Z,20.97
2017-07-15T02:49:53.022Z,21.93
2017-07-15T02:52:20.337Z,23.20
2017-07-15T02:54:47.686Z,19.30
2017-07-15T02:57:15.130Z,19.20
2017-07-15T02:59:42.667Z,19.60
2017-07-15T03:02:10.017Z,19.77
2017-07-15T03:04:37.330Z,24.93
2017-07-15T03:07:04.667Z,20.40
2017-07-15T03:09:32.010Z,21.97
2017-07-15T03:11:59.361Z,20.00
2017-07-15T03:14:26.674Z,22.57
2017-07-15T03:16:53.982Z,21.27
2017-07-15T03:19:21.336Z,23.40
2017-07-15T03:21:48.644Z,20.87
2017-07-15T03:24:16.009Z,20.10
2017-07-15T03:26:49.418Z,22.90
2017-07-15T03:29:16.748Z,23.53
2017-07-15T03:31:44.062Z,19.73
2017-07-15T03:34:11.458Z,20.07
2017-07-15T03:36:38.795Z,20.90
2017-07-15T03:39:06.098Z,18.80
2017-07-15T03:41:33.416Z,25.50
2017-07-15T03:44:00.744Z,19.17
2017-07-15T03:46:28.061Z,20.57
2017-07-15T03:48:55.404Z,20.80
2017-07-15T03:51:22.721Z,22.80
2017-07-15T03:53:50.025Z,22.10
2017-07-15T03:56:17.476Z,21.83
2017-07-15T03:58:44.843Z,21.93
2017-07-15T04:01:12.150Z,20.00
2017-07-15T04:03:39.447Z,26.90
2017-07-15T04:06:06.778Z,23.67
2017-07-15T04:08:34.086Z,21.10
2017-07-15T04:11:01.454Z,17.97
2017-07-15T04:13:28.767Z,19.43
2017-07-15T04:15:56.090Z,19.87
2017-07-15T04:18:23.452Z,18.77
2017-07-15T04:20:50.773Z,19.23
2017-07-15T04:23:18.120Z,20.17
2017-07-15T04:25:45.452Z,20.50
2017-07-15T04:28:12.918Z,24.63
2017-07-15T04:30:40.242Z,22.93
2017-07-15T04:33:07.589Z,19.80
2017-07-15T04:35:34.897Z,23.70
2017-07-15T04:38:02.207Z,19.77
2017-07-15T04:40:29.801Z,19.40
2017-07-15T04:42:57.127Z,18.30
2017-07-15T04:45:24.428Z,19.33
2017-07-15T04:47:51.770Z,20.83
2017-07-15T04:50:19.070Z,20.10
2017-07-15T04:52:46.448Z,18.77
2017-07-15T04:55:13.783Z,23.20
2017-07-15T04:57:41.112Z,23.67
2017-07-15T05:00:08.444Z,19.17
2017-07-15T05:02:35.763Z,21.23
2017-07-15T05:05:03.156Z,21.83
2017-07-15T05:07:30.452Z,16.80
2017-07-15T05:09:57.811Z,22.20
2017-07-15T05:12:25.136Z,18.27
2017-07-15T05:14:52.486Z,18.03
2017-07-15T05:17:19.832Z,20.83
2017-07-15T05:19:47.137Z,21.57
2017-07-15T05:22:14.481Z,21.73
2017-07-15T05:24:41.791Z,18.93
2017-07-15T05:27:09.149Z,20.73
2017-07-15T05:29:36.471Z,20.87
2017-07-15T05:32:03.801Z,18.93
2017-07-15T05:34:31.137Z,19.20
2017-07-15T05:36:58.717Z,17.80
2017-07-15T05:39:26.038Z,22.03
2017-07-15T05:41:53.345Z,19.20
2017-07-15T05:44:21.479Z,19.70
2017-07-15T05:46:48.807Z,19.17
2017-07-15T05:49:16.345Z,18.47
2017-07-15T05:51:43.688Z,22.77
2017-07-15T05:54:11.016Z,21.00
2017-07-15T05:56:38.366Z,19.10
2017-07-15T05:59:05.690Z,19.57
2017-07-15T06:01:33.271Z,17.90
2017-07-15T06:04:00.563Z,18.40
2017-07-15T06:06:27.908Z,17.27
2017-07-15T06:08:55.221Z,18.93
2017-07-15T06:11:22.573Z,15.23
2017-07-15T06:13:49.936Z,16.40
2017-07-15T06:16:17.261Z,18.30
2017-07-15T06:18:44.604Z,18.83
2017-07-15T06:21:11.913Z,16.37
2017-07-15T06:23:39.257Z,16.67
2017-07-15T06:26:06.635Z,18.13
2017-07-15T06:28:33.968Z,17.40
2017-07-15T06:31:01.322Z,14.60
2017-07-15T06:33:28.664Z,18.90
2017-07-15T06:35:56.009Z,16.37
2017-07-15T06:38:23.340Z,18.00
2017-07-15T06:40:50.667Z,18.73
2017-07-15T06:43:18.042Z,18.90
2017-07-15T06:45:46.328Z,15.03
2017-07-15T06:48:13.635Z,15.60
2017-07-15T06:50:40.959Z,20.57
2017-07-15T06:53:08.299Z,17.40
2017-07-15T06:55:35.713Z,18.83
2017-07-15T06:58:03.033Z,14.50
2017-07-15T07:00:31.938Z,17.60
2017-07-15T07:02:59.261Z,18.80
2017-07-15T07:05:26.586Z,17.93
2017-07-15T07:07:54.978Z,17.30
2017-07-15T07:10:22.624Z,19.03
2017-07-15T07:12:49.960Z,20.77
2017-07-15T07:15:17.262Z,19.90
2017-07-15T07:17:44.584Z,16.33
2017-07-15T07:20:11.904Z,20.10
2017-07-15T07:22:39.248Z,17.60
2017-07-15T07:25:06.608Z,16.07
2017-07-15T07:27:33.933Z,14.20
2017-07-15T07:30:01.277Z,13.53
2017-07-15T07:32:28.589Z,17.13
2017-07-15T07:34:55.913Z,16.80
2017-07-15T07:37:23.214Z,15.43
2017-07-15T07:39:50.550Z,11.70
2017-07-15T07:42:17.875Z,13.43
2017-07-15T07:44:45.336Z,15.20
2017-07-15T07:47:12.951Z,13.33
2017-07-15T07:49:40.278Z,13.10
2017-07-15T07:52:07.565Z,11.63
2017-07-15T07:54:34.887Z,12.97
2017-07-15T07:57:02.235Z,16.07
2017-07-15T07:59:29.571Z,13.37
2017-07-15T08:01:57.045Z,12.60
2017-07-15T08:04:24.351Z,17.73
2017-07-15T08:06:53.252Z,19.00
2017-07-15T08:09:20.579Z,13.73
2017-07-15T08:11:47.926Z,15.00
2017-07-15T08:14:15.266Z,17.20
2017-07-15T08:16:42.605Z,15.97
2017-07-15T08:19:09.936Z,12.67
2017-07-15T08:21:37.286Z,11.43
2017-07-15T08:24:04.985Z,9.83
2017-07-15T08:26:32.284Z,13.30
2017-07-15T08:28:59.619Z,17.23
2017-07-15T08:31:26.937Z,11.23
2017-07-15T08:33:54.247Z,13.13
2017-07-15T08:36:21.543Z,9.77
2017-07-15T08:38:48.868Z,11.23
2017-07-15T08:41:16.192Z,11.63
2017-07-15T08:43:43.514Z,10.77
2017-07-15T08:46:10.972Z,9.20
2017-07-15T08:48:38.285Z,11.17
2017-07-15T08:51:06.550Z,13.90
2017-07-15T08:53:33.878Z,12.40
2017-07-15T08:56:01.176Z,7.43
2017-07-15T08:58:28.483Z,8.87
2017-07-15T09:00:56.036Z,8.70
2017-07-15T09:03:23.349Z,13.47
2017-07-15T09:05:50.654Z,9.83
2017-07-15T09:08:17.995Z,10.27
2017-07-15T09:10:45.329Z,13.10
2017-07-15T09:13:12.681Z,9.10
2017-07-15T09:15:40.088Z,7.83
2017-07-15T09:18:07.382Z,9.77
2017-07-15T09:20:34.680Z,7.70
2017-07-15T09:23:01.977Z,8.30
2017-07-15T09:25:29.324Z,12.20
2017-07-15T09:27:57.444Z,7.07
2017-07-15T09:30:24.793Z,7.77
2017-07-15T09:32:52.144Z,8.20
2017-07-15T09:35:19.496Z,8.73
2017-07-15T09:37:46.795Z,7.10
2017-07-15T09:40:14.575Z,8.40
2017-07-15T09:42:41.906Z,9.40
2017-07-15T09:45:09.221Z,7.57
2017-07-15T09:47:36.587Z,7.10
2017-07-15T09:50:03.895Z,7.93
2017-07-15T09:52:31.215Z,13.17
2017-07-15T09:54:58.517Z,11.33
2017-07-15T09:57:25.910Z,11.90
2017-07-15T09:59:53.205Z,10.50
2017-07-15T10:02:20.546Z,10.53
2017-07-15T10:04:47.949Z,10.10
2017-07-15T10:07:15.405Z,10.57
2017-07-15T10:09:42.707Z,11.03
2017-07-15T10:12:10.077Z,10.30
2017-07-15T10:14:37.414Z,10.33
2017-07-15T10:17:04.721Z,8.47
2017-07-15T10:19:32.015Z,8.73
2017-07-15T10:21:59.329Z,8.13
2017-07-15T10:24:26.641Z,13.63
2017-07-15T10:26:53.932Z,11.47
2017-07-15T10:29:21.279Z,8.70
2017-07-15T10:31:48.569Z,8.13
2017-07-15T10:34:15.864Z,7.90
2017-07-15T10:36:43.294Z,8.57
2017-07-15T10:39:11.573Z,8.13
2017-07-15T10:41:38.876Z,10.63
2017-07-15T10:44:06.190Z,8.90
2017-07-15T10:46:33.471Z,10.77
2017-07-15T10:49:00.812Z,9.90
2017-07-15T10:51:28.113Z,18.07
2017-07-15T10:53:55.419Z,13.33
2017-07-15T10:56:22.719Z,9.90
2017-07-15T10:58:50.021Z,10.10
2017-07-15T11:01:17.327Z,10.60
2017-07-15T11:03:44.672Z,10.30
2017-07-15T11:06:12.934Z,8.20
2017-07-15T11:08:40.243Z,10.67
2017-07-15T11:11:08.529Z,9.70
2017-07-15T11:13:36.231Z,11.00
2017-07-15T11:16:03.557Z,11.53
2017-07-15T11:18:31.490Z,8.23
2017-07-15T11:20:58.826Z,8.50
2017-07-15T11:23:26.131Z,7.73
2017-07-15T11:25:53.447Z,8.90
2017-07-15T11:28:20.811Z,8.60
2017-07-15T11:30:48.153Z,6.83
2017-07-15T11:33:15.700Z,7.30
2017-07-15T11:35:43.473Z,7.20
2017-07-15T11:38:10.811Z,8.10
2017-07-15T11:40:38.141Z,6.93
2017-07-15T11:43:05.495Z,7.63
2017-07-15T11:45:32.838Z,7.73
2017-07-15T11:48:00.230Z,7.80
2017-07-15T11:50:27.541Z,7.43
2017-07-15T11:52:54.858Z,6.97
2017-07-15T11:55:22.198Z,7.23
2017-07-15T11:57:49.513Z,8.53
2017-07-15T12:00:16.800Z,8.47
2017-07-15T12:02:44.124Z,10.73
2017-07-15T12:05:11.444Z,7.17
2017-07-15T12:07:38.753Z,6.97
2017-07-15T12:10:06.048Z,8.17
2017-07-15T12:12:33.365Z,6.03
2017-07-15T12:15:00.681Z,6.30
2017-07-15T12:17:27.978Z,7.30
2017-07-15T12:19:55.371Z,9.30
2017-07-15T12:22:22.685Z,10.20
2017-07-15T12:24:52.932Z,9.33
2017-07-15T12:27:20.239Z,10.37
2017-07-15T12:29:47.558Z,11.00
2017-07-15T12:32:14.881Z,6.33
2017-07-15T12:34:42.215Z,6.07
2017-07-15T12:37:09.522Z,6.20
2017-07-15T12:39:36.836Z,5.77
2017-07-15T12:42:04.129Z,6.43
2017-07-15T12:44:31.471Z,6.33
2017-07-15T12:46:58.754Z,6.10
2017-07-15T12:49:26.053Z,8.37
2017-07-15T12:51:53.368Z,10.37
2017-07-15T12:54:20.695Z,9.40
2017-07-15T12:56:48.180Z,7.00
2017-07-15T12:59:15.490Z,7.10
2017-07-15T13:01:42.810Z,7.30
2017-07-15T13:04:10.092Z,6.90
2017-07-15T13:06:37.402Z,6.63
2017-07-15T13:09:04.684Z,8.10
2017-07-15T13:11:32.005Z,8.17
2017-07-15T13:14:00.055Z,7.83
2017-07-15T13:16:27.366Z,7.93
2017-07-15T13:18:54.655Z,7.77
2017-07-15T13:21:21.999Z,6.10
2017-07-15T13:23:49.656Z,7.50
2017-07-15T13:26:17.028Z,6.77
2017-07-15T13:28:44.339Z,6.20
2017-07-15T13:31:12.098Z,7.20
2017-07-15T13:33:39.415Z,9.53
2017-07-15T13:36:06.716Z,7.80
2017-07-15T13:38:34.020Z,7.00
2017-07-15T13:41:01.349Z,11.00
2017-07-15T13:43:28.664Z,7.40
2017-07-15T13:45:55.940Z,7.27
2017-07-15T13:48:23.277Z,7.80
2017-07-15T13:50:50.592Z,8.27
2017-07-15T13:53:17.904Z,7.67
2017-07-15T13:55:45.495Z,8.63
2017-07-15T13:58:12.799Z,7.50
2017-07-15T14:00:40.104Z,8.23
2017-07-15T14:03:07.403Z,6.87
2017-07-15T14:05:34.713Z,8.27
2017-07-15T14:08:02.015Z,7.40
2017-07-15T14:10:29.389Z,9.00
2017-07-15T14:12:56.738Z,7.67
2017-07-15T14:15:24.084Z,9.13
2017-07-15T14:17:51.391Z,7.13
2017-07-15T14:20:19.014Z,8.07
2017-07-15T14:22:46.338Z,5.00
2017-07-15T14:25:13.648Z,5.27
2017-07-15T14:27:40.945Z,5.43
2017-07-15T14:30:09.059Z,4.80
2017-07-15T14:32:36.358Z,5.60
2017-07-15T14:35:03.668Z,5.70
2017-07-15T14:37:30.967Z,5.00
2017-07-15T14:39:58.269Z,8.00
2017-07-15T14:42:25.604Z,6.13
2017-07-15T14:44:52.962Z,6.60
2017-07-15T14:47:20.283Z,9.13
2017-07-15T14:49:48.914Z,7.00
2017-07-15T14:52:17.172Z,11.80
2017-07-15T14:54:44.469Z,9.83
2017-07-15T14:57:11.792Z,7.90
2017-07-15T14:59:39.089Z,6.53
2017-07-15T15:02:06.396Z,6.27
2017-07-15T15:04:33.704Z,7.40
2017-07-15T15:07:07.910Z,7.97
2017-07-15T15:09:35.205Z,7.40
2017-07-15T15:12:02.588Z,8.13
2017-07-15T15:14:29.912Z,9.70
2017-07-15T15:16:57.280Z,7.20
2017-07-15T15:19:24.602Z,7.83
2017-07-15T15:21:51.907Z,9.13
2017-07-15T15:24:19.233Z,7.73
2017-07-15T15:26:46.532Z,11.77
2017-07-15T15:29:13.845Z,7.80
2017-07-15T15:31:41.128Z,6.60
2017-07-15T15:34:08.571Z,8.70
2017-07-15T15:36:35.883Z,7.27
2017-07-15T15:39:03.186Z,6.87
2017-07-15T15:41:30.494Z,10.63
2017-07-15T15:43:57.792Z,8.53
2017-07-15T15:46:25.090Z,10.37
2017-07-15T15:48:52.413Z,11.30
2017-07-15T15:51:19.734Z,8.23
2017-07-15T15:53:47.023Z,13.93
2017-07-15T15:56:14.347Z,13.43
2017-07-15T15:58:42.261Z,9.50
2017-07-15T16:01:09.579Z,10.27
2017-07-15T16:03:36.907Z,10.20
2017-07-15T16:06:04.213Z,9.87
2017-07-15T16:08:31.559Z,9.13
2017-07-15T16:10:58.902Z,7.80
2017-07-15T16:13:26.245Z,7.30
2017-07-15T16:15:53.578Z,8.87
2017-07-15T16:18:20.900Z,14.00
2017-07-15T16:20:48.477Z,10.37
2017-07-15T16:23:15.776Z,8.37
2017-07-15T16:25:43.229Z,12.00
2017-07-15T16:28:10.545Z,7.53
2017-07-15T16:30:37.828Z,9.00
2017-07-15T16:33:05.169Z,8.70
2017-07-15T16:35:32.462Z,9.73
2017-07-15T16:37:59.769Z,8.60
2017-07-15T16:40:27.089Z,10.70
2017-07-15T16:42:54.427Z,7.73
2017-07-15T16:45:21.761Z,9.30
2017-07-15T16:47:49.101Z,12.03
2017-07-15T16:50:16.403Z,9.50
2017-07-15T16:52:43.905Z,12.13
2017-07-15T16:55:11.237Z,13.07
2017-07-15T16:57:38.540Z,9.43
2017-07-15T17:00:05.927Z,12.33
2017-07-15T17:02:33.292Z,13.67
2017-07-15T17:05:00.591Z,11.50
2017-07-15T17:07:27.905Z,12.10
2017-07-15T17:09:55.242Z,10.20
2017-07-15T17:12:22.554Z,12.23
2017-07-15T17:14:49.900Z,13.57
2017-07-15T17:17:17.211Z,12.03
2017-07-15T17:19:44.553Z,12.87
2017-07-15T17:22:11.939Z,15.43
2017-07-15T17:24:39.260Z,13.73
2017-07-15T17:27:06.555Z,13.90
2017-07-15T17:29:33.869Z,14.93
2017-07-15T17:32:01.177Z,13.33
2017-07-15T17:34:28.505Z,13.03
2017-07-15T17:36:56.761Z,12.77
2017-07-15T17:39:24.484Z,11.97
2017-07-15T17:41:51.823Z,12.00
2017-07-15T17:44:19.132Z,13.97
2017-07-15T17:46:46.437Z,10.73
2017-07-15T17:49:13.957Z,9.20
2017-07-15T17:51:41.260Z,11.80
2017-07-15T17:54:08.565Z,10.57
2017-07-15T17:56:35.911Z,10.70
2017-07-15T17:59:03.231Z,11.00
2017-07-15T18:01:30.919Z,10.23
2017-07-15T18:03:58.209Z,11.60
2017-07-15T18:06:25.547Z,10.63
2017-07-15T18:08:52.855Z,11.40
2017-07-15T18:11:20.186Z,9.70
2017-07-15T18:13:47.477Z,9.10
2017-07-15T18:16:14.776Z,10.53
2017-07-15T18:18:42.810Z,9.60
2017-07-15T18:21:10.111Z,12.33
2017-07-15T18:23:37.432Z,11.70
2017-07-15T18:26:05.711Z,13.00
2017-07-15T18:28:34.924Z,9.37
2017-07-15T18:31:02.248Z,8.60
2017-07-15T18:33:29.611Z,9.07
2017-07-15T18:35:56.987Z,6.10
2017-07-15T18:38:24.310Z,8.47
2017-07-15T18:40:51.604Z,9.90
2017-07-15T18:43:18.910Z,8.50
2017-07-15T18:45:46.196Z,9.07
2017-07-15T18:48:13.956Z,8.53
2017-07-15T18:50:41.287Z,9.00
2017-07-15T18:53:08.646Z,8.60
2017-07-15T18:55:36.164Z,12.20
2017-07-15T18:58:03.500Z,12.77
2017-07-15T19:00:30.826Z,8.07
2017-07-15T19:02:58.127Z,8.80
2017-07-15T19:05:25.482Z,10.83
2017-07-15T19:07:52.763Z,8.27
2017-07-15T19:10:20.083Z,12.27
2017-07-15T19:12:47.390Z,9.50
2017-07-15T19:15:14.718Z,10.63
2017-07-15T19:17:42.037Z,10.37
2017-07-15T19:20:09.363Z,10.80
2017-07-15T19:22:36.715Z,10.10
2017-07-15T19:25:04.041Z,10.90
2017-07-15T19:27:31.341Z,11.40
2017-07-15T19:29:58.645Z,10.47
2017-07-15T19:32:26.003Z,13.47
2017-07-15T19:34:53.350Z,13.00
2017-07-15T19:37:20.698Z,16.33
2017-07-15T19:39:48.325Z,15.23
2017-07-15T19:42:15.674Z,11.63
2017-07-15T19:44:43.039Z,12.30
2017-07-15T19:47:10.348Z,11.50
2017-07-15T19:49:37.686Z,13.23
2017-07-15T19:52:05.006Z,15.87
2017-07-15T19:54:32.309Z,12.77
2017-07-15T19:56:59.620Z,13.30
2017-07-15T19:59:26.938Z,13.33
2017-07-15T20:01:54.299Z,11.93
2017-07-15T20:04:21.640Z,13.23
2017-07-15T20:06:48.974Z,19.00
2017-07-15T20:09:16.316Z,10.50
2017-07-15T20:11:43.953Z,13.37
2017-07-15T20:14:11.288Z,13.13
2017-07-15T20:16:38.585Z,13.47
2017-07-15T20:19:05.898Z,13.40
2017-07-15T20:21:33.220Z,13.43
2017-07-15T20:24:00.554Z,14.17
2017-07-15T20:26:27.862Z,16.40
2017-07-15T20:28:55.179Z,17.60
2017-07-15T20:31:22.473Z,13.83
2017-07-15T20:33:49.794Z,12.33
2017-07-15T20:36:22.845Z,14.67
2017-07-15T20:38:50.176Z,17.17
2017-07-15T20:41:17.497Z,15.73
2017-07-15T20:43:44.835Z,15.10
2017-07-15T20:46:12.176Z,13.90
2017-07-15T20:48:39.595Z,12.50
2017-07-15T20:51:06.956Z,12.73
2017-07-15T20:53:53.096Z,16.80
2017-07-15T20:56:20.406Z,13.57
2017-07-15T20:58:47.713Z,14.57
2017-07-15T21:01:15.065Z,11.53
2017-07-15T21:03:42.408Z,12.43
2017-07-15T21:06:09.745Z,11.17
2017-07-15T21:08:37.079Z,11.97
2017-07-15T21:11:04.433Z,10.90
2017-07-15T21:13:32.059Z,10.80
2017-07-15T21:15:59.408Z,9.13
2017-07-15T21:18:26.737Z,9.67
2017-07-15T21:20:54.052Z,11.60
2017-07-15T21:23:21.338Z,13.00
2017-07-15T21:25:48.852Z,9.50
2017-07-15T21:28:16.223Z,12.27
2017-07-15T21:30:43.568Z,12.30
2017-07-15T21:33:10.931Z,11.43
2017-07-15T21:35:38.251Z,11.30
2017-07-15T21:38:05.555Z,10.03
2017-07-15T21:40:32.851Z,13.03
2017-07-15T21:43:00.180Z,9.70
2017-07-15T21:45:27.492Z,11.27
2017-07-15T21:47:54.810Z,11.10
2017-07-15T21:50:22.102Z,16.27
2017-07-15T21:52:49.427Z,13.43
2017-07-15T21:55:16.739Z,13.17
2017-07-15T21:57:44.101Z,11.80
2017-07-15T22:00:11.436Z,11.40
2017-07-15T22:02:38.732Z,13.13
2017-07-15T22:05:06.083Z,10.27
2017-07-15T22:07:33.366Z,12.30
2017-07-15T22:10:00.703Z,12.20
2017-07-15T22:12:28.032Z,12.93
2017-07-15T22:14:55.348Z,16.40
2017-07-15T22:17:22.639Z,14.20
2017-07-15T22:19:49.975Z,12.80
2017-07-15T22:22:17.295Z,13.33
2017-07-15T22:24:44.608Z,13.40
2017-07-15T22:27:11.904Z,17.40
2017-07-15T22:29:39.257Z,12.40
2017-07-15T22:32:06.548Z,12.93
2017-07-15T22:34:33.852Z,13.40
2017-07-15T22:37:01.167Z,13.93
2017-07-15T22:39:29.404Z,13.30
2017-07-15T22:41:56.720Z,12.20
2017-07-15T22:44:24.020Z,12.20
2017-07-15T22:46:51.352Z,11.77
2017-07-15T22:49:18.653Z,14.00
2017-07-15T22:51:45.966Z,12.70
2017-07-15T22:54:13.269Z,13.60
2017-07-15T22:56:40.815Z,13.70
2017-07-15T22:59:08.300Z,12.53
2017-07-15T23:01:35.640Z,12.87
2017-07-15T23:04:02.991Z,14.03
2017-07-15T23:06:30.324Z,17.47
2017-07-15T23:08:57.698Z,13.63
2017-07-15T23:11:25.010Z,14.77
2017-07-15T23:13:52.531Z,15.10
2017-07-15T23:16:19.827Z,16.10
2017-07-15T23:18:47.139Z,15.20
2017-07-15T23:21:14.444Z,15.50
2017-07-15T23:23:41.771Z,13.80
2017-07-15T23:26:09.075Z,14.50
2017-07-15T23:28:36.398Z,13.90
2017-07-15T23:31:03.701Z,15.20
2017-07-15T23:33:31.042Z,16.80
2017-07-15T23:35:58.371Z,16.73
2017-07-15T23:38:25.719Z,17.07
2017-07-15T23:40:53.035Z,17.33
2017-07-15T23:43:20.372Z,16.60
2017-07-15T23:45:47.661Z,20.87
2017-07-15T23:48:14.956Z,21.23
2017-07-15T23:50:42.280Z,21.70
2017-07-15T23:53:09.590Z,24.17
2017-07-15T23:55:36.913Z,17.93
2017-07-15T23:58:04.220Z,19.70
